createdAt,value
2023-04-26T00:00:09.522Z,99.90
2023-04-26T00:01:14.817Z,99.90
2023-04-26T00:02:18.771Z,99.90
2023-04-26T00:03:24.014Z,99.90
2023-04-26T00:04:29.538Z,99.90
2023-04-26T00:05:35.785Z,99.90
2023-04-26T00:06:42.109Z,99.90
2023-04-26T00:07:46.436Z,99.90
2023-04-26T00:08:49.627Z,99.90
2023-04-26T00:09:55.644Z,99.90
2023-04-26T00:10:58.648Z,99.90
2023-04-26T00:12:04.079Z,99.90
2023-04-26T00:13:06.787Z,99.90
2023-04-26T00:14:12.082Z,99.90
2023-04-26T00:15:14.862Z,99.90
2023-04-26T00:16:20.637Z,99.90
2023-04-26T00:17:24.505Z,99.90
2023-04-26T00:18:28.290Z,99.90
2023-04-26T00:19:32.735Z,99.90
2023-04-26T00:20:36.388Z,99.90
2023-04-26T00:21:39.856Z,99.90
2023-04-26T00:22:44.798Z,99.90
2023-04-26T00:23:48.105Z,99.90
2023-04-26T00:24:51.951Z,99.90
2023-04-26T00:25:57.839Z,99.90
2023-04-26T00:27:05.519Z,99.90
2023-04-26T00:28:07.990Z,99.90
2023-04-26T00:29:11.905Z,99.90
2023-04-26T00:30:15.809Z,99.90
2023-04-26T00:31:19.912Z,99.90
2023-04-26T00:32:23.373Z,99.90
2023-04-26T00:33:27.690Z,99.90
2023-04-26T00:34:34.849Z,99.90
2023-04-26T00:35:39.339Z,99.90
2023-04-26T00:36:42.267Z,99.90
2023-04-26T00:37:46.611Z,99.90
2023-04-26T00:38:49.484Z,99.90
2023-04-26T00:39:53.694Z,99.90
2023-04-26T00:40:58.045Z,99.90
2023-04-26T00:42:02.007Z,99.90
2023-04-26T00:43:07.932Z,99.90
2023-04-26T00:44:10.876Z,99.90
2023-04-26T00:45:14.763Z,99.90
2023-04-26T00:46:17.949Z,99.90
2023-04-26T00:47:21.512Z,99.90
2023-04-26T00:48:24.801Z,99.90
2023-04-26T00:49:28.547Z,99.90
2023-04-26T00:50:32.665Z,99.90
2023-04-26T00:51:37.928Z,99.90
2023-04-26T00:52:40.968Z,99.90
2023-04-26T00:53:45.254Z,99.90
2023-04-26T00:54:49.974Z,99.90
2023-04-26T00:55:54.764Z,99.90
2023-04-26T00:56:58.988Z,99.90
2023-04-26T00:58:03.320Z,99.90
2023-04-26T00:59:06.705Z,99.90
2023-04-26T01:00:12.086Z,99.90
2023-04-26T01:01:15.380Z,99.90
2023-04-26T01:02:19.418Z,99.90
2023-04-26T01:03:22.613Z,99.90
2023-04-26T01:04:27.616Z,99.90
2023-04-26T01:05:31.701Z,99.90
2023-04-26T01:06:38.784Z,99.90
2023-04-26T01:07:42.689Z,99.90
2023-04-26T01:08:45.576Z,99.90
2023-04-26T01:09:50.978Z,99.90
2023-04-26T01:10:59.672Z,99.90
2023-04-26T01:12:05.724Z,99.90
2023-04-26T01:13:09.543Z,99.90
2023-04-26T01:14:12.140Z,99.90
2023-04-26T01:15:16.173Z,99.90
2023-04-26T01:16:21.002Z,99.90
2023-04-26T01:17:26.275Z,99.90
2023-04-26T01:18:29.451Z,99.90
2023-04-26T01:19:33.637Z,99.90
2023-04-26T01:20:36.514Z,99.90
2023-04-26T01:21:41.911Z,99.90
2023-04-26T01:22:47.087Z,99.90
2023-04-26T01:23:53.797Z,99.90
2023-04-26T01:25:27.459Z,99.90
2023-04-26T01:26:32.159Z,99.90
2023-04-26T01:27:36.335Z,99.90
2023-04-26T01:28:39.085Z,99.90
2023-04-26T01:29:43.269Z,99.90
2023-04-26T01:30:46.341Z,99.90
2023-04-26T01:31:51.096Z,99.90
2023-04-26T01:32:53.965Z,99.90
2023-04-26T01:33:58.024Z,99.90
2023-04-26T01:35:01.536Z,99.90
2023-04-26T01:36:10.212Z,99.90
2023-04-26T01:37:13.502Z,99.90
2023-04-26T01:38:20.473Z,99.90
2023-04-26T01:39:23.650Z,99.90
2023-04-26T01:40:27.697Z,99.90
2023-04-26T01:41:30.828Z,99.90
2023-04-26T01:42:37.556Z,99.90
2023-04-26T01:43:40.234Z,99.90
2023-04-26T01:44:44.234Z,99.90
2023-04-26T01:45:47.825Z,99.90
2023-04-26T01:47:07.437Z,99.90
2023-04-26T01:48:10.473Z,99.90
2023-04-26T01:49:14.432Z,99.90
2023-04-26T01:50:17.696Z,99.90
2023-04-26T01:51:21.725Z,99.90
2023-04-26T01:52:24.417Z,99.90
2023-04-26T01:53:30.417Z,99.90
2023-04-26T01:54:33.881Z,99.90
2023-04-26T01:55:38.107Z,99.90
2023-04-26T01:56:40.720Z,99.90
2023-04-26T01:57:44.649Z,99.90
2023-04-26T01:58:47.559Z,99.90
2023-04-26T01:59:51.234Z,99.90
2023-04-26T02:00:55.748Z,99.90
2023-04-26T02:01:59.853Z,99.90
2023-04-26T02:03:02.624Z,99.90
2023-04-26T02:04:07.560Z,99.90
2023-04-26T02:05:12.641Z,99.90
2023-04-26T02:06:16.785Z,99.90
2023-04-26T02:07:20.337Z,99.90
2023-04-26T02:08:24.592Z,99.90
2023-04-26T02:09:28.731Z,99.90
2023-04-26T02:10:32.298Z,99.90
2023-04-26T02:11:37.762Z,99.90
2023-04-26T02:12:41.930Z,99.90
2023-04-26T02:13:44.719Z,99.90
2023-04-26T02:14:48.720Z,99.90
2023-04-26T02:15:51.883Z,99.90
2023-04-26T02:16:57.529Z,99.90
2023-04-26T02:18:00.474Z,99.90
2023-04-26T02:19:05.680Z,99.90
2023-04-26T02:20:10.533Z,99.90
2023-04-26T02:21:14.685Z,99.90
2023-04-26T02:22:18.162Z,99.90
2023-04-26T02:23:21.851Z,99.90
2023-04-26T02:24:26.117Z,99.90
2023-04-26T02:25:31.647Z,99.90
2023-04-26T02:26:34.629Z,99.90
2023-04-26T02:27:38.738Z,99.90
2023-04-26T02:28:42.086Z,99.90
2023-04-26T02:29:46.063Z,99.90
2023-04-26T02:31:08.858Z,99.90
2023-04-26T02:32:13.617Z,99.90
2023-04-26T02:33:16.156Z,99.90
2023-04-26T02:34:21.317Z,99.90
2023-04-26T02:35:27.032Z,99.90
2023-04-26T02:36:30.766Z,99.90
2023-04-26T02:37:36.020Z,99.90
2023-04-26T02:38:42.012Z,99.90
2023-04-26T02:39:45.279Z,99.90
2023-04-26T02:40:53.889Z,99.90
2023-04-26T02:41:57.852Z,99.90
2023-04-26T02:43:03.077Z,99.90
2023-04-26T02:44:06.505Z,99.90
2023-04-26T02:45:10.755Z,99.90
2023-04-26T02:46:17.185Z,99.90
2023-04-26T02:47:24.988Z,99.90
2023-04-26T02:48:30.587Z,99.90
2023-04-26T02:49:35.069Z,99.90
2023-04-26T02:50:38.274Z,99.90
2023-04-26T02:51:43.259Z,99.90
2023-04-26T02:52:45.892Z,99.90
2023-04-26T02:53:49.765Z,99.90
2023-04-26T02:54:52.334Z,99.90
2023-04-26T02:55:57.505Z,99.90
2023-04-26T02:57:01.335Z,99.90
2023-04-26T02:58:05.586Z,99.90
2023-04-26T02:59:08.895Z,99.90
2023-04-26T03:00:23.905Z,99.90
2023-04-26T03:01:27.070Z,99.90
2023-04-26T03:02:31.595Z,99.90
2023-04-26T03:03:35.039Z,99.90
2023-04-26T03:04:40.235Z,99.90
2023-04-26T03:05:43.293Z,99.90
2023-04-26T03:06:48.878Z,99.90
2023-04-26T03:07:53.657Z,99.90
2023-04-26T03:08:59.410Z,99.90
2023-04-26T03:10:02.813Z,99.90
2023-04-26T03:11:08.347Z,99.90
2023-04-26T03:12:12.093Z,99.90
2023-04-26T03:13:16.752Z,99.90
2023-04-26T03:14:19.719Z,99.90
2023-04-26T03:15:25.963Z,99.90
2023-04-26T03:16:29.603Z,99.90
2023-04-26T03:17:33.652Z,99.90
2023-04-26T03:18:40.856Z,99.90
2023-04-26T03:19:46.718Z,99.90
2023-04-26T03:20:50.449Z,99.90
2023-04-26T03:21:52.948Z,99.90
2023-04-26T03:22:59.535Z,99.90
2023-04-26T03:24:02.729Z,99.90
2023-04-26T03:25:08.130Z,99.90
2023-04-26T03:26:12.397Z,99.90
2023-04-26T03:27:16.000Z,99.90
2023-04-26T03:28:22.038Z,99.90
2023-04-26T03:29:26.184Z,99.90
2023-04-26T03:30:28.833Z,99.90
2023-04-26T03:31:33.253Z,99.90
2023-04-26T03:32:36.097Z,99.90
2023-04-26T03:33:40.196Z,99.90
2023-04-26T03:34:43.844Z,99.90
2023-04-26T03:35:47.799Z,99.90
2023-04-26T03:36:52.022Z,99.90
2023-04-26T03:37:57.231Z,99.90
2023-04-26T03:39:04.599Z,99.90
2023-04-26T03:40:10.031Z,99.90
2023-04-26T03:41:15.488Z,99.90
2023-04-26T03:42:23.896Z,99.90
2023-04-26T03:43:30.575Z,99.90
2023-04-26T03:44:33.855Z,99.90
2023-04-26T03:45:40.235Z,99.90
2023-04-26T03:46:43.699Z,99.90
2023-04-26T03:47:50.706Z,99.90
2023-04-26T03:48:53.661Z,99.90
2023-04-26T03:49:57.670Z,99.90
2023-04-26T03:51:02.640Z,99.90
2023-04-26T03:52:06.777Z,99.90
2023-04-26T03:53:09.676Z,99.90
2023-04-26T03:54:13.943Z,99.90
2023-04-26T03:55:19.491Z,99.90
2023-04-26T03:56:25.527Z,99.90
2023-04-26T03:57:29.161Z,99.90
2023-04-26T03:58:33.849Z,99.90
2023-04-26T03:59:36.730Z,99.90
2023-04-26T04:00:43.685Z,99.90
2023-04-26T04:01:49.032Z,99.90
2023-04-26T04:02:53.251Z,99.90
2023-04-26T04:04:00.778Z,99.90
2023-04-26T04:05:08.521Z,99.90
2023-04-26T04:06:13.187Z,99.90
2023-04-26T04:07:18.544Z,99.90
2023-04-26T04:08:22.140Z,99.90
2023-04-26T04:09:25.844Z,99.90
2023-04-26T04:10:30.390Z,99.90
2023-04-26T04:11:35.381Z,99.90
2023-04-26T04:12:38.376Z,99.90
2023-04-26T04:13:42.558Z,99.90
2023-04-26T04:14:48.068Z,99.90
2023-04-26T04:15:54.220Z,99.90
2023-04-26T04:16:56.796Z,99.90
2023-04-26T04:18:00.883Z,99.90
2023-04-26T04:19:04.080Z,99.90
2023-04-26T04:20:12.164Z,99.90
2023-04-26T04:21:16.851Z,99.90
2023-04-26T04:22:20.922Z,99.90
2023-04-26T04:23:24.127Z,99.90
2023-04-26T04:24:32.774Z,99.90
2023-04-26T04:25:37.111Z,99.90
2023-04-26T04:26:46.020Z,99.90
2023-04-26T04:27:50.287Z,99.90
2023-04-26T04:28:55.335Z,99.90
2023-04-26T04:29:58.256Z,99.90
2023-04-26T04:31:05.539Z,98.90
2023-04-26T04:32:09.090Z,99.80
2023-04-26T04:33:14.521Z,98.50
2023-04-26T04:34:17.214Z,98.00
2023-04-26T04:35:25.814Z,97.70
2023-04-26T04:36:28.499Z,97.30
2023-04-26T04:37:34.974Z,97.10
2023-04-26T04:38:40.282Z,97.00
2023-04-26T04:39:46.985Z,96.70
2023-04-26T04:40:53.524Z,96.20
2023-04-26T04:41:59.107Z,95.80
2023-04-26T04:43:02.747Z,95.50
2023-04-26T04:44:08.559Z,95.80
2023-04-26T04:45:12.816Z,94.40
2023-04-26T04:46:20.308Z,95.30
2023-04-26T04:47:24.859Z,94.80
2023-04-26T04:48:32.202Z,94.10
2023-04-26T04:49:38.783Z,94.70
2023-04-26T04:50:44.230Z,93.40
2023-04-26T04:51:47.909Z,93.00
2023-04-26T04:52:52.786Z,92.60
2023-04-26T04:54:01.720Z,92.30
2023-04-26T04:55:07.816Z,92.40
2023-04-26T04:56:12.469Z,92.40
2023-04-26T04:57:19.167Z,92.30
2023-04-26T04:58:27.864Z,91.70
2023-04-26T04:59:33.384Z,91.60
2023-04-26T05:00:41.559Z,91.40
2023-04-26T05:01:52.480Z,90.10
2023-04-26T05:02:56.856Z,90.90
2023-04-26T05:03:59.973Z,90.60
2023-04-26T05:05:07.963Z,90.10
2023-04-26T05:06:11.382Z,89.30
2023-04-26T05:07:15.931Z,89.10
2023-04-26T05:08:22.377Z,88.00
2023-04-26T05:09:27.064Z,88.70
2023-04-26T05:10:31.091Z,88.30
2023-04-26T05:11:36.492Z,87.70
2023-04-26T05:12:43.888Z,88.90
2023-04-26T05:13:47.343Z,89.20
2023-04-26T05:14:51.430Z,89.40
2023-04-26T05:15:58.075Z,88.70
2023-04-26T05:17:01.033Z,88.40
2023-04-26T05:18:05.904Z,87.80
2023-04-26T05:19:09.652Z,85.10
2023-04-26T05:20:15.198Z,86.90
2023-04-26T05:21:18.033Z,87.50
2023-04-26T05:22:23.020Z,88.20
2023-04-26T05:23:26.153Z,88.30
2023-04-26T05:24:35.207Z,87.20
2023-04-26T05:25:38.690Z,89.00
2023-04-26T05:27:04.358Z,88.60
2023-04-26T05:28:18.150Z,87.80
2023-04-26T05:29:45.541Z,89.30
2023-04-26T05:31:02.824Z,90.00
2023-04-26T05:32:25.345Z,90.10
2023-04-26T05:33:50.281Z,89.60
2023-04-26T05:35:06.871Z,88.40
2023-04-26T05:36:11.747Z,90.20
2023-04-26T05:37:17.604Z,90.30
2023-04-26T05:38:22.648Z,90.10
2023-04-26T05:39:26.725Z,89.70
2023-04-26T05:40:32.323Z,94.50
2023-04-26T05:41:39.656Z,98.10
2023-04-26T05:42:42.677Z,98.20
2023-04-26T05:43:49.686Z,94.80
2023-04-26T05:44:58.647Z,88.40
2023-04-26T05:46:03.838Z,84.20
2023-04-26T05:47:08.904Z,81.30
2023-04-26T05:48:12.928Z,81.30
2023-04-26T05:49:17.715Z,81.10
2023-04-26T05:50:22.660Z,78.10
2023-04-26T05:51:28.717Z,78.50
2023-04-26T05:52:32.552Z,77.30
2023-04-26T05:53:37.120Z,76.50
2023-04-26T05:54:40.176Z,74.90
2023-04-26T05:55:47.597Z,74.90
2023-04-26T05:56:52.587Z,74.80
2023-04-26T05:57:59.095Z,74.30
2023-04-26T05:59:05.010Z,72.80
2023-04-26T06:00:13.546Z,70.90
2023-04-26T06:01:21.805Z,73.20
2023-04-26T06:02:27.060Z,72.10
2023-04-26T06:03:32.827Z,72.20
2023-04-26T06:04:36.910Z,72.30
2023-04-26T06:05:45.544Z,71.60
2023-04-26T06:06:49.578Z,72.00
2023-04-26T06:07:52.668Z,70.20
2023-04-26T06:08:57.532Z,69.90
2023-04-26T06:10:03.340Z,68.70
2023-04-26T06:11:09.219Z,67.20
2023-04-26T06:12:13.598Z,67.60
2023-04-26T06:13:19.441Z,81.80
2023-04-26T06:14:30.767Z,69.80
2023-04-26T06:15:41.371Z,70.90
2023-04-26T06:16:45.250Z,65.60
2023-04-26T06:17:48.077Z,66.40
2023-04-26T06:18:53.436Z,66.20
2023-04-26T06:21:00.961Z,66.00
2023-04-26T06:22:04.181Z,65.40
2023-04-26T06:23:08.452Z,64.20
2023-04-26T06:24:12.341Z,64.30
2023-04-26T06:25:18.016Z,63.10
2023-04-26T06:26:21.434Z,63.50
2023-04-26T06:27:26.713Z,64.30
2023-04-26T06:28:31.707Z,64.40
2023-04-26T06:29:36.301Z,63.70
2023-04-26T06:30:44.483Z,62.70
2023-04-26T06:31:49.156Z,63.30
2023-04-26T06:32:55.873Z,62.80
2023-04-26T06:33:59.682Z,62.70
2023-04-26T06:35:06.265Z,62.80
2023-04-26T06:36:15.874Z,61.20
2023-04-26T06:37:18.859Z,60.90
2023-04-26T06:38:24.233Z,61.30
2023-04-26T06:39:27.837Z,61.20
2023-04-26T06:40:32.021Z,60.30
2023-04-26T06:41:38.622Z,61.60
2023-04-26T06:42:43.045Z,60.40
2023-04-26T06:44:15.179Z,60.20
2023-04-26T06:45:21.445Z,60.20
2023-04-26T06:46:24.598Z,60.40
2023-04-26T06:47:30.544Z,60.30
2023-04-26T06:48:33.728Z,60.30
2023-04-26T06:49:41.456Z,59.10
2023-04-26T06:50:45.328Z,59.30
2023-04-26T06:51:48.114Z,59.60
2023-04-26T06:52:52.281Z,59.80
2023-04-26T06:53:55.506Z,58.80
2023-04-26T06:55:02.666Z,58.00
2023-04-26T06:56:06.936Z,57.70
2023-04-26T06:57:10.038Z,58.20
2023-04-26T06:58:14.750Z,57.20
2023-04-26T06:59:21.450Z,57.60
2023-04-26T07:00:27.282Z,57.00
2023-04-26T07:01:34.167Z,59.60
2023-04-26T07:02:41.215Z,56.60
2023-04-26T07:03:45.235Z,56.90
2023-04-26T07:04:49.784Z,56.00
2023-04-26T07:05:53.697Z,55.60
2023-04-26T07:06:56.882Z,54.50
2023-04-26T07:08:04.197Z,55.30
2023-04-26T07:09:08.488Z,55.40
2023-04-26T07:10:13.201Z,55.50
2023-04-26T07:11:17.241Z,56.60
2023-04-26T07:17:47.106Z,52.50
2023-04-26T07:18:50.602Z,53.30
2023-04-26T07:19:56.168Z,53.40
2023-04-26T07:21:00.203Z,52.90
2023-04-26T07:22:04.855Z,53.40
2023-04-26T07:23:09.385Z,53.70
2023-04-26T07:24:16.216Z,52.60
2023-04-26T07:25:20.711Z,54.80
2023-04-26T07:26:25.095Z,53.20
2023-04-26T07:27:34.139Z,52.70
2023-04-26T07:28:38.156Z,53.70
2023-04-26T07:29:41.118Z,52.50
2023-04-26T07:30:51.898Z,51.50
2023-04-26T07:31:57.974Z,52.00
2023-04-26T07:33:02.753Z,52.10
2023-04-26T07:34:06.842Z,52.30
2023-04-26T07:35:16.141Z,52.40
2023-04-26T07:36:24.523Z,53.00
2023-04-26T07:37:28.155Z,52.40
2023-04-26T07:38:32.186Z,53.60
2023-04-26T07:39:36.578Z,52.10
2023-04-26T07:40:40.311Z,51.30
2023-04-26T07:41:44.372Z,52.30
2023-04-26T07:42:48.677Z,52.40
2023-04-26T07:43:51.637Z,51.50
2023-04-26T07:44:55.621Z,50.90
2023-04-26T07:46:03.482Z,50.60
2023-04-26T07:47:12.465Z,51.80
2023-04-26T07:48:16.946Z,51.20
2023-04-26T07:49:20.692Z,51.60
2023-04-26T07:50:27.285Z,52.20
2023-04-26T07:51:32.284Z,52.20
2023-04-26T07:52:36.379Z,52.30
2023-04-26T07:53:43.928Z,53.00
2023-04-26T07:54:48.286Z,52.70
2023-04-26T07:55:52.712Z,52.90
2023-04-26T07:56:57.289Z,53.00
2023-04-26T07:58:01.361Z,51.50
2023-04-26T07:59:05.094Z,51.80
2023-04-26T08:00:12.360Z,51.90
2023-04-26T08:01:17.805Z,53.00
2023-04-26T08:02:24.969Z,54.00
2023-04-26T08:03:34.364Z,54.00
2023-04-26T08:04:38.925Z,54.40
2023-04-26T08:05:41.865Z,54.60
2023-04-26T08:06:48.893Z,54.70
2023-04-26T08:07:51.585Z,57.00
2023-04-26T08:08:55.448Z,55.10
2023-04-26T08:09:59.690Z,56.70
2023-04-26T08:11:02.285Z,56.40
2023-04-26T08:12:07.098Z,55.20
2023-04-26T08:13:11.194Z,54.40
2023-04-26T08:14:17.457Z,53.20
2023-04-26T08:15:21.411Z,53.60
2023-04-26T08:16:27.300Z,53.90
2023-04-26T08:17:30.611Z,54.20
2023-04-26T08:18:35.387Z,54.70
2023-04-26T08:19:39.284Z,56.50
2023-04-26T08:20:43.715Z,55.10
2023-04-26T08:21:47.807Z,56.90
2023-04-26T08:22:50.741Z,58.70
2023-04-26T08:23:55.131Z,57.70
2023-04-26T08:24:59.731Z,57.20
2023-04-26T08:26:03.586Z,56.70
2023-04-26T08:27:09.601Z,55.70
2023-04-26T08:28:15.446Z,55.40
2023-04-26T08:29:19.475Z,55.00
2023-04-26T08:30:24.222Z,54.40
2023-04-26T08:31:31.958Z,54.30
2023-04-26T08:32:35.891Z,54.70
2023-04-26T08:33:40.578Z,55.80
2023-04-26T08:34:43.844Z,53.80
2023-04-26T08:35:50.827Z,56.10
2023-04-26T08:36:57.150Z,55.70
2023-04-26T08:38:03.356Z,56.80
2023-04-26T08:39:07.275Z,56.90
2023-04-26T08:40:11.771Z,56.60
2023-04-26T08:41:17.206Z,58.20
2023-04-26T08:42:26.620Z,58.20
2023-04-26T08:43:30.508Z,59.10
2023-04-26T08:44:38.465Z,57.60
2023-04-26T08:45:44.338Z,56.80
2023-04-26T08:47:02.225Z,57.10
2023-04-26T08:48:15.190Z,55.00
2023-04-26T08:49:31.530Z,55.00
2023-04-26T08:50:40.436Z,53.70
2023-04-26T08:51:46.903Z,54.40
2023-04-26T08:52:53.681Z,55.80
2023-04-26T08:54:00.993Z,56.00
2023-04-26T08:55:07.932Z,56.00
2023-04-26T08:56:14.672Z,56.40
2023-04-26T08:57:18.815Z,56.50
2023-04-26T08:58:25.158Z,56.00
2023-04-26T08:59:29.219Z,56.60
2023-04-26T09:00:34.663Z,56.90
2023-04-26T09:01:41.154Z,57.70
2023-04-26T09:02:49.345Z,58.80
2023-04-26T09:03:54.272Z,58.10
2023-04-26T09:05:01.940Z,57.70
2023-04-26T09:06:10.668Z,58.40
2023-04-26T09:07:22.577Z,57.90
2023-04-26T09:08:28.422Z,57.80
2023-04-26T09:09:42.457Z,58.50
2023-04-26T09:10:47.572Z,58.40
2023-04-26T09:11:57.976Z,59.90
2023-04-26T09:13:02.850Z,58.10
2023-04-26T09:14:05.636Z,59.00
2023-04-26T09:15:13.609Z,57.30
2023-04-26T09:16:22.991Z,55.80
2023-04-26T09:17:27.639Z,59.60
2023-04-26T09:18:35.468Z,59.20
2023-04-26T09:19:43.806Z,55.00
2023-04-26T09:20:47.966Z,55.70
2023-04-26T09:21:50.499Z,56.40
2023-04-26T09:22:56.520Z,53.70
2023-04-26T09:24:02.376Z,54.90
2023-04-26T09:25:08.854Z,56.70
2023-04-26T09:26:23.582Z,57.20
2023-04-26T09:27:39.789Z,55.10
2023-04-26T09:28:43.303Z,56.10
2023-04-26T09:30:00.989Z,56.80
2023-04-26T09:31:06.054Z,56.80
2023-04-26T09:32:10.329Z,56.10
2023-04-26T09:33:14.008Z,57.70
2023-04-26T09:34:19.750Z,54.90
2023-04-26T09:35:34.744Z,54.80
2023-04-26T09:36:52.588Z,55.40
2023-04-26T09:38:02.320Z,55.20
2023-04-26T09:39:11.729Z,55.20
2023-04-26T09:40:19.802Z,55.30
2023-04-26T09:41:23.514Z,55.20
2023-04-26T09:42:26.867Z,55.00
2023-04-26T09:43:39.826Z,55.20
2023-04-26T09:44:42.547Z,54.10
2023-04-26T09:45:50.527Z,55.10
2023-04-26T09:47:00.175Z,55.60
2023-04-26T09:48:20.474Z,54.80
2023-04-26T09:49:26.545Z,54.20
2023-04-26T09:50:32.746Z,54.50
2023-04-26T09:51:36.679Z,54.60
2023-04-26T09:52:45.226Z,54.30
2023-04-26T09:53:51.405Z,54.40
2023-04-26T09:54:57.504Z,54.80
2023-04-26T09:56:10.280Z,54.50
2023-04-26T09:57:14.008Z,55.40
2023-04-26T09:58:18.479Z,54.20
2023-04-26T09:59:27.630Z,53.80
2023-04-26T10:00:34.076Z,53.70
2023-04-26T10:01:40.207Z,54.40
2023-04-26T10:02:46.811Z,54.30
2023-04-26T10:03:51.789Z,54.10
2023-04-26T10:05:03.283Z,54.10
2023-04-26T10:06:08.646Z,54.30
2023-04-26T10:07:12.239Z,54.30
2023-04-26T10:08:17.014Z,58.50
2023-04-26T10:09:20.398Z,54.60
2023-04-26T10:10:25.734Z,55.10
2023-04-26T10:11:31.458Z,53.80
2023-04-26T10:12:35.986Z,53.70
2023-04-26T10:13:41.635Z,53.60
2023-04-26T10:14:49.532Z,53.40
2023-04-26T10:15:55.455Z,52.40
2023-04-26T10:16:59.787Z,53.30
2023-04-26T10:18:04.739Z,53.00
2023-04-26T10:19:08.742Z,52.50
2023-04-26T10:20:17.058Z,52.70
2023-04-26T10:21:28.392Z,53.10
2023-04-26T10:22:36.171Z,53.00
2023-04-26T10:23:43.810Z,52.70
2023-04-26T10:24:47.338Z,52.40
2023-04-26T10:25:51.578Z,52.20
2023-04-26T10:26:58.375Z,52.80
2023-04-26T10:28:03.772Z,52.40
2023-04-26T10:29:06.857Z,52.20
2023-04-26T10:30:15.354Z,52.60
2023-04-26T10:31:19.276Z,52.10
2023-04-26T10:32:22.486Z,52.10
2023-04-26T10:33:28.148Z,50.00
2023-04-26T10:34:33.229Z,49.50
2023-04-26T10:35:39.598Z,49.50
2023-04-26T10:37:24.876Z,49.80
2023-04-26T10:38:35.737Z,50.80
2023-04-26T10:39:41.725Z,51.10
2023-04-26T10:40:46.548Z,51.50
2023-04-26T10:41:53.947Z,51.30
2023-04-26T10:43:32.175Z,51.00
2023-04-26T10:44:46.360Z,51.90
2023-04-26T10:45:51.657Z,51.70
2023-04-26T10:46:54.532Z,51.50
2023-04-26T10:48:17.688Z,51.70
2023-04-26T10:49:25.844Z,52.60
2023-04-26T10:50:30.853Z,52.30
2023-04-26T10:51:38.469Z,52.40
2023-04-26T10:53:07.463Z,52.40
2023-04-26T10:54:10.433Z,53.70
2023-04-26T10:55:14.126Z,54.10
2023-04-26T10:56:54.220Z,54.70
2023-04-26T10:57:58.282Z,54.40
2023-04-26T11:00:37.024Z,53.50
2023-04-26T11:01:42.805Z,53.20
2023-04-26T11:02:49.785Z,54.00
2023-04-26T11:04:08.896Z,52.70
2023-04-26T11:05:12.420Z,52.70
2023-04-26T11:06:17.645Z,52.50
2023-04-26T11:07:38.793Z,52.70
2023-04-26T11:08:43.818Z,53.30
2023-04-26T11:09:50.078Z,53.50
2023-04-26T11:11:10.878Z,53.40
2023-04-26T11:12:16.516Z,53.30
2023-04-26T11:13:19.906Z,54.60
2023-04-26T11:14:24.214Z,52.30
2023-04-26T11:15:27.582Z,53.90
2023-04-26T11:16:31.511Z,54.40
2023-04-26T11:17:37.971Z,54.80
2023-04-26T11:18:44.246Z,55.20
2023-04-26T11:19:47.541Z,55.50
2023-04-26T11:20:51.595Z,55.60
2023-04-26T11:21:56.268Z,55.50
2023-04-26T11:23:02.914Z,55.40
2023-04-26T11:24:07.420Z,55.40
2023-04-26T11:25:13.379Z,55.80
2023-04-26T11:26:17.368Z,55.90
2023-04-26T11:27:21.211Z,55.20
2023-04-26T11:28:25.065Z,56.30
2023-04-26T11:29:33.159Z,56.50
2023-04-26T11:30:40.608Z,57.20
2023-04-26T11:31:44.821Z,55.50
2023-04-26T11:32:48.948Z,55.60
2023-04-26T11:33:55.788Z,55.50
2023-04-26T11:35:01.136Z,55.40
2023-04-26T11:36:08.210Z,55.40
2023-04-26T11:37:12.112Z,55.20
2023-04-26T11:38:17.829Z,55.40
2023-04-26T11:39:22.510Z,55.00
2023-04-26T11:40:29.674Z,55.00
2023-04-26T11:41:36.629Z,55.40
2023-04-26T11:42:40.330Z,54.80
2023-04-26T11:43:44.495Z,55.10
2023-04-26T11:44:51.527Z,55.20
2023-04-26T11:46:02.467Z,55.80
2023-04-26T11:47:11.734Z,55.90
2023-04-26T11:48:17.097Z,55.50
2023-04-26T11:49:21.737Z,56.10
2023-04-26T11:50:27.254Z,56.00
2023-04-26T11:51:32.347Z,56.10
2023-04-26T11:52:37.424Z,56.10
2023-04-26T11:53:44.655Z,56.10
2023-04-26T11:54:47.944Z,56.10
2023-04-26T11:55:52.181Z,56.30
2023-04-26T11:56:56.128Z,55.80
2023-04-26T11:57:59.977Z,56.00
2023-04-26T11:59:04.193Z,56.60
2023-04-26T12:00:16.060Z,55.50
2023-04-26T12:01:23.996Z,55.20
2023-04-26T12:02:29.925Z,54.80
2023-04-26T12:03:38.953Z,54.80
2023-04-26T12:04:44.567Z,54.70
2023-04-26T12:05:56.593Z,54.70
2023-04-26T12:07:04.096Z,54.80
2023-04-26T12:08:12.043Z,54.50
2023-04-26T12:09:17.992Z,54.50
2023-04-26T12:10:25.222Z,54.80
2023-04-26T12:11:29.046Z,57.50
2023-04-26T12:12:31.648Z,56.20
2023-04-26T12:13:40.138Z,54.60
2023-04-26T12:14:43.562Z,56.80
2023-04-26T12:15:48.404Z,55.50
2023-04-26T12:16:52.226Z,58.00
2023-04-26T12:17:56.768Z,55.40
2023-04-26T12:19:01.678Z,55.70
2023-04-26T12:20:10.844Z,54.00
2023-04-26T12:21:15.400Z,55.40
2023-04-26T12:22:24.079Z,63.00
2023-04-26T12:23:28.199Z,55.40
2023-04-26T12:24:34.898Z,54.90
2023-04-26T12:25:41.568Z,54.80
2023-04-26T12:26:49.597Z,53.40
2023-04-26T12:27:53.434Z,53.00
2023-04-26T12:28:57.762Z,54.10
2023-04-26T12:30:00.701Z,53.00
2023-04-26T12:31:05.040Z,55.50
2023-04-26T12:32:15.087Z,53.00
2023-04-26T12:33:23.748Z,52.60
2023-04-26T12:34:27.691Z,53.60
2023-04-26T12:35:32.826Z,53.00
2023-04-26T12:36:36.984Z,52.80
2023-04-26T12:37:41.828Z,53.20
2023-04-26T12:38:46.012Z,52.50
2023-04-26T12:39:50.713Z,52.80
2023-04-26T12:40:55.299Z,54.20
2023-04-26T12:41:59.409Z,53.40
2023-04-26T12:43:02.874Z,52.90
2023-04-26T12:44:07.520Z,53.00
2023-04-26T12:45:13.157Z,52.70
2023-04-26T12:46:18.109Z,54.20
2023-04-26T12:47:21.775Z,53.60
2023-04-26T12:48:26.293Z,53.00
2023-04-26T12:49:29.941Z,53.20
2023-04-26T12:50:34.349Z,52.70
2023-04-26T12:51:39.124Z,53.40
2023-04-26T12:52:46.192Z,53.10
2023-04-26T12:53:51.345Z,52.30
2023-04-26T12:54:57.155Z,51.90
2023-04-26T12:56:01.085Z,51.70
2023-04-26T12:57:05.720Z,51.10
2023-04-26T12:58:10.543Z,50.00
2023-04-26T12:59:13.769Z,50.00
2023-04-26T13:00:19.908Z,50.60
2023-04-26T13:01:22.584Z,51.00
2023-04-26T13:02:26.529Z,53.00
2023-04-26T13:03:31.146Z,52.90
2023-04-26T13:04:39.202Z,53.00
2023-04-26T13:05:46.224Z,53.30
2023-04-26T13:06:50.368Z,53.30
2023-04-26T13:07:54.303Z,56.20
2023-04-26T13:08:57.233Z,54.30
2023-04-26T13:10:03.611Z,55.80
2023-04-26T13:11:08.037Z,55.10
2023-04-26T13:12:11.504Z,55.90
2023-04-26T13:13:15.443Z,54.10
2023-04-26T13:14:18.115Z,54.10
2023-04-26T13:15:22.105Z,54.30
2023-04-26T13:16:26.012Z,54.60
2023-04-26T13:17:30.325Z,54.80
2023-04-26T13:18:33.118Z,53.40
2023-04-26T13:19:41.486Z,52.10
2023-04-26T13:20:48.208Z,52.80
2023-04-26T13:21:52.716Z,54.10
2023-04-26T13:22:57.332Z,53.40
2023-04-26T13:24:00.041Z,53.10
2023-04-26T13:25:06.149Z,52.50
2023-04-26T13:26:10.082Z,51.90
2023-04-26T13:27:13.364Z,52.00
2023-04-26T13:28:17.261Z,54.70
2023-04-26T13:29:20.007Z,53.50
2023-04-26T13:30:24.081Z,53.50
2023-04-26T13:31:27.561Z,53.20
2023-04-26T13:32:32.173Z,52.50
2023-04-26T13:33:36.355Z,52.90
2023-04-26T13:34:40.552Z,53.30
2023-04-26T13:35:44.161Z,54.40
2023-04-26T13:36:46.725Z,56.40
2023-04-26T13:37:51.041Z,56.50
2023-04-26T13:38:54.383Z,55.50
2023-04-26T13:40:00.411Z,58.70
2023-04-26T13:41:05.980Z,53.80
2023-04-26T13:42:08.731Z,52.40
2023-04-26T13:43:12.625Z,53.00
2023-04-26T13:44:16.294Z,53.10
2023-04-26T13:45:20.985Z,53.50
2023-04-26T13:46:29.193Z,53.40
2023-04-26T13:47:33.534Z,52.60
2023-04-26T13:48:37.200Z,52.90
2023-04-26T13:49:44.998Z,53.70
2023-04-26T13:50:47.928Z,57.00
2023-04-26T13:51:52.822Z,54.10
2023-04-26T13:52:56.837Z,55.10
2023-04-26T13:54:02.234Z,53.80
2023-04-26T13:55:06.621Z,54.10
2023-04-26T13:56:10.753Z,54.40
2023-04-26T13:57:15.172Z,52.90
2023-04-26T13:58:18.460Z,51.60
2023-04-26T13:59:23.593Z,52.60
2023-04-26T14:00:27.382Z,51.70
2023-04-26T14:01:31.530Z,53.50
2023-04-26T14:02:34.908Z,52.90
2023-04-26T14:03:39.681Z,53.30
2023-04-26T14:04:44.431Z,53.50
2023-04-26T14:05:47.583Z,53.00
2023-04-26T14:06:53.915Z,53.20
2023-04-26T14:07:59.140Z,54.80
2023-04-26T14:09:02.115Z,55.40
2023-04-26T14:10:06.300Z,55.60
2023-04-26T14:11:11.352Z,52.60
2023-04-26T14:12:16.825Z,54.40
2023-04-26T14:13:21.184Z,53.20
2023-04-26T14:14:28.356Z,52.20